sensor_id;sensor_type;location;lat;lon;timestamp;temperature;humidity
67141;DHT22;54058;52.010;5.546;2023-05-09T00:00:49;16.50;83.90
67141;DHT22;54058;52.010;5.546;2023-05-09T00:03:15;16.50;83.90
67141;DHT22;54058;52.010;5.546;2023-05-09T00:05:40;16.50;83.90
67141;DHT22;54058;52.010;5.546;2023-05-09T00:08:06;16.50;83.90
67141;DHT22;54058;52.010;5.546;2023-05-09T00:10:32;16.50;83.80
67141;DHT22;54058;52.010;5.546;2023-05-09T00:12:57;16.50;83.60
67141;DHT22;54058;52.010;5.546;2023-05-09T00:15:24;16.50;83.80
67141;DHT22;54058;52.010;5.546;2023-05-09T00:17:50;16.50;84.00
67141;DHT22;54058;52.010;5.546;2023-05-09T00:20:16;16.50;84.10
67141;DHT22;54058;52.010;5.546;2023-05-09T00:22:42;16.50;84.00
67141;DHT22;54058;52.010;5.546;2023-05-09T00:25:09;16.50;84.00
67141;DHT22;54058;52.010;5.546;2023-05-09T00:27:35;16.50;83.90
67141;DHT22;54058;52.010;5.546;2023-05-09T00:30:02;16.50;83.90
67141;DHT22;54058;52.010;5.546;2023-05-09T00:32:27;16.50;84.00
67141;DHT22;54058;52.010;5.546;2023-05-09T00:34:54;16.50;85.30
67141;DHT22;54058;52.010;5.546;2023-05-09T00:37:22;16.40;83.80
67141;DHT22;54058;52.010;5.546;2023-05-09T00:39:47;16.40;83.80
67141;DHT22;54058;52.010;5.546;2023-05-09T00:42:13;16.40;84.00
67141;DHT22;54058;52.010;5.546;2023-05-09T00:44:39;16.40;84.00
67141;DHT22;54058;52.010;5.546;2023-05-09T00:47:06;16.40;84.10
67141;DHT22;54058;52.010;5.546;2023-05-09T00:49:32;16.40;84.10
67141;DHT22;54058;52.010;5.546;2023-05-09T00:51:58;16.40;84.20
67141;DHT22;54058;52.010;5.546;2023-05-09T00:54:24;16.40;84.10
67141;DHT22;54058;52.010;5.546;2023-05-09T00:56:50;16.40;84.20
67141;DHT22;54058;52.010;5.546;2023-05-09T00:59:16;16.40;84.20
67141;DHT22;54058;52.010;5.546;2023-05-09T01:01:42;16.40;84.30
67141;DHT22;54058;52.010;5.546;2023-05-09T01:04:08;16.40;84.40
67141;DHT22;54058;52.010;5.546;2023-05-09T01:06:47;16.40;84.50
67141;DHT22;54058;52.010;5.546;2023-05-09T01:20:32;16.40;85.10
67141;DHT22;54058;52.010;5.546;2023-05-09T01:23:11;16.40;85.00
67141;DHT22;54058;52.010;5.546;2023-05-09T01:26:04;16.40;84.90
67141;DHT22;54058;52.010;5.546;2023-05-09T01:31:26;16.40;84.90
67141;DHT22;54058;52.010;5.546;2023-05-09T01:33:57;16.40;84.80
67141;DHT22;54058;52.010;5.546;2023-05-09T01:36:26;16.40;84.80
67141;DHT22;54058;52.010;5.546;2023-05-09T01:38:56;16.40;84.90
67141;DHT22;54058;52.010;5.546;2023-05-09T01:41:23;16.50;84.90
67141;DHT22;54058;52.010;5.546;2023-05-09T01:43:52;16.40;84.90
67141;DHT22;54058;52.010;5.546;2023-05-09T01:46:20;16.40;84.80
67141;DHT22;54058;52.010;5.546;2023-05-09T01:48:47;16.40;84.90
67141;DHT22;54058;52.010;5.546;2023-05-09T01:51:14;16.40;84.90
67141;DHT22;54058;52.010;5.546;2023-05-09T01:53:41;16.40;84.90
67141;DHT22;54058;52.010;5.546;2023-05-09T01:56:08;16.40;85.00
67141;DHT22;54058;52.010;5.546;2023-05-09T01:58:36;16.40;85.00
67141;DHT22;54058;52.010;5.546;2023-05-09T02:01:03;16.40;85.20
67141;DHT22;54058;52.010;5.546;2023-05-09T02:03:31;16.40;85.30
67141;DHT22;54058;52.010;5.546;2023-05-09T02:05:58;16.40;85.30
67141;DHT22;54058;52.010;5.546;2023-05-09T02:08:25;16.40;85.30
67141;DHT22;54058;52.010;5.546;2023-05-09T02:10:51;16.40;86.40
67141;DHT22;54058;52.010;5.546;2023-05-09T02:13:17;16.30;85.10
67141;DHT22;54058;52.010;5.546;2023-05-09T02:15:43;16.30;85.20
67141;DHT22;54058;52.010;5.546;2023-05-09T02:18:09;16.30;85.20
67141;DHT22;54058;52.010;5.546;2023-05-09T02:20:35;16.30;85.30
67141;DHT22;54058;52.010;5.546;2023-05-09T02:23:01;16.30;85.40
67141;DHT22;54058;52.010;5.546;2023-05-09T02:25:27;16.20;85.50
67141;DHT22;54058;52.010;5.546;2023-05-09T02:27:54;16.20;85.60
67141;DHT22;54058;52.010;5.546;2023-05-09T02:30:23;16.20;85.70
67141;DHT22;54058;52.010;5.546;2023-05-09T02:32:52;16.20;85.70
67141;DHT22;54058;52.010;5.546;2023-05-09T02:35:20;16.20;85.60
67141;DHT22;54058;52.010;5.546;2023-05-09T02:37:47;16.20;85.60
67141;DHT22;54058;52.010;5.546;2023-05-09T02:40:13;16.20;85.70
67141;DHT22;54058;52.010;5.546;2023-05-09T02:42:39;16.20;85.60
67141;DHT22;54058;52.010;5.546;2023-05-09T02:45:05;16.20;85.60
67141;DHT22;54058;52.010;5.546;2023-05-09T02:47:32;16.20;85.80
67141;DHT22;54058;52.010;5.546;2023-05-09T02:49:57;16.20;85.90
67141;DHT22;54058;52.010;5.546;2023-05-09T02:52:23;16.20;85.90
67141;DHT22;54058;52.010;5.546;2023-05-09T02:54:49;16.20;86.10
67141;DHT22;54058;52.010;5.546;2023-05-09T02:57:14;16.20;86.10
67141;DHT22;54058;52.010;5.546;2023-05-09T02:59:40;16.10;86.10
67141;DHT22;54058;52.010;5.546;2023-05-09T03:02:06;16.10;86.20
67141;DHT22;54058;52.010;5.546;2023-05-09T03:04:32;16.20;86.20
67141;DHT22;54058;52.010;5.546;2023-05-09T03:06:57;16.20;86.20
67141;DHT22;54058;52.010;5.546;2023-05-09T03:09:23;16.20;86.10
67141;DHT22;54058;52.010;5.546;2023-05-09T03:11:49;16.20;86.20
67141;DHT22;54058;52.010;5.546;2023-05-09T03:14:14;16.20;86.20
67141;DHT22;54058;52.010;5.546;2023-05-09T03:16:40;16.10;86.10
67141;DHT22;54058;52.010;5.546;2023-05-09T03:19:06;16.20;86.10
67141;DHT22;54058;52.010;5.546;2023-05-09T03:21:31;16.20;86.10
67141;DHT22;54058;52.010;5.546;2023-05-09T03:23:57;16.20;86.10
67141;DHT22;54058;52.010;5.546;2023-05-09T03:26:23;16.20;86.00
67141;DHT22;54058;52.010;5.546;2023-05-09T03:28:48;16.10;86.00
67141;DHT22;54058;52.010;5.546;2023-05-09T03:31:14;16.10;86.00
67141;DHT22;54058;52.010;5.546;2023-05-09T03:33:40;16.10;86.00
67141;DHT22;54058;52.010;5.546;2023-05-09T03:36:06;16.10;86.00
67141;DHT22;54058;52.010;5.546;2023-05-09T03:38:32;16.00;86.00
67141;DHT22;54058;52.010;5.546;2023-05-09T03:40:57;16.00;86.00
67141;DHT22;54058;52.010;5.546;2023-05-09T03:43:23;16.10;86.00
67141;DHT22;54058;52.010;5.546;2023-05-09T03:45:48;16.10;85.90
67141;DHT22;54058;52.010;5.546;2023-05-09T03:48:14;16.00;86.00
67141;DHT22;54058;52.010;5.546;2023-05-09T03:50:40;15.90;86.10
67141;DHT22;54058;52.010;5.546;2023-05-09T03:53:06;15.90;86.10
67141;DHT22;54058;52.010;5.546;2023-05-09T03:55:32;15.90;86.10
67141;DHT22;54058;52.010;5.546;2023-05-09T03:57:57;15.90;86.20
67141;DHT22;54058;52.010;5.546;2023-05-09T04:00:23;15.90;86.10
67141;DHT22;54058;52.010;5.546;2023-05-09T04:02:51;15.90;86.10
67141;DHT22;54058;52.010;5.546;2023-05-09T04:05:17;15.90;86.10
67141;DHT22;54058;52.010;5.546;2023-05-09T04:07:43;16.00;86.10
67141;DHT22;54058;52.010;5.546;2023-05-09T04:10:10;16.00;86.00
67141;DHT22;54058;52.010;5.546;2023-05-09T04:12:36;16.00;86.00
67141;DHT22;54058;52.010;5.546;2023-05-09T04:15:02;16.00;86.00
67141;DHT22;54058;52.010;5.546;2023-05-09T04:17:28;16.00;86.00
67141;DHT22;54058;52.010;5.546;2023-05-09T04:19:53;16.00;85.90
67141;DHT22;54058;52.010;5.546;2023-05-09T04:22:19;16.00;86.00
67141;DHT22;54058;52.010;5.546;2023-05-09T04:24:45;16.00;86.10
67141;DHT22;54058;52.010;5.546;2023-05-09T04:27:10;16.00;86.00
67141;DHT22;54058;52.010;5.546;2023-05-09T04:29:36;16.00;86.00
67141;DHT22;54058;52.010;5.546;2023-05-09T04:32:03;16.00;86.00
67141;DHT22;54058;52.010;5.546;2023-05-09T04:34:29;16.00;86.00
67141;DHT22;54058;52.010;5.546;2023-05-09T04:36:56;16.00;86.00
67141;DHT22;54058;52.010;5.546;2023-05-09T04:39:21;16.00;86.00
67141;DHT22;54058;52.010;5.546;2023-05-09T04:41:47;16.10;86.60
67141;DHT22;54058;52.010;5.546;2023-05-09T04:44:14;16.10;86.00
67141;DHT22;54058;52.010;5.546;2023-05-09T04:46:40;16.10;86.00
67141;DHT22;54058;52.010;5.546;2023-05-09T04:49:05;16.10;86.00
67141;DHT22;54058;52.010;5.546;2023-05-09T04:51:31;16.10;86.10
67141;DHT22;54058;52.010;5.546;2023-05-09T04:53:56;16.10;86.00
67141;DHT22;54058;52.010;5.546;2023-05-09T04:56:22;16.10;86.00
67141;DHT22;54058;52.010;5.546;2023-05-09T04:58:48;16.20;86.00
67141;DHT22;54058;52.010;5.546;2023-05-09T05:01:14;16.20;86.10
67141;DHT22;54058;52.010;5.546;2023-05-09T05:03:40;16.20;86.10
67141;DHT22;54058;52.010;5.546;2023-05-09T05:06:06;16.20;87.00
67141;DHT22;54058;52.010;5.546;2023-05-09T05:08:32;16.10;86.10
67141;DHT22;54058;52.010;5.546;2023-05-09T05:10:57;16.10;86.20
67141;DHT22;54058;52.010;5.546;2023-05-09T05:13:23;16.20;86.20
67141;DHT22;54058;52.010;5.546;2023-05-09T05:15:49;16.20;86.20
67141;DHT22;54058;52.010;5.546;2023-05-09T05:18:14;16.30;86.20
67141;DHT22;54058;52.010;5.546;2023-05-09T05:20:40;16.30;86.20
67141;DHT22;54058;52.010;5.546;2023-05-09T05:23:07;16.40;86.20
67141;DHT22;54058;52.010;5.546;2023-05-09T05:25:33;16.50;86.20
67141;DHT22;54058;52.010;5.546;2023-05-09T05:27:58;16.50;86.20
67141;DHT22;54058;52.010;5.546;2023-05-09T05:30:24;16.60;86.20
67141;DHT22;54058;52.010;5.546;2023-05-09T05:32:50;16.60;86.10
67141;DHT22;54058;52.010;5.546;2023-05-09T05:35:16;16.70;86.20
67141;DHT22;54058;52.010;5.546;2023-05-09T05:37:42;16.70;86.10
67141;DHT22;54058;52.010;5.546;2023-05-09T05:40:09;16.70;86.10
67141;DHT22;54058;52.010;5.546;2023-05-09T05:42:35;16.80;86.20
67141;DHT22;54058;52.010;5.546;2023-05-09T05:45:01;16.80;86.20
67141;DHT22;54058;52.010;5.546;2023-05-09T05:47:30;16.80;86.00
67141;DHT22;54058;52.010;5.546;2023-05-09T05:49:56;16.90;86.00
67141;DHT22;54058;52.010;5.546;2023-05-09T05:52:21;17.00;86.00
67141;DHT22;54058;52.010;5.546;2023-05-09T05:54:47;17.10;86.10
67141;DHT22;54058;52.010;5.546;2023-05-09T05:57:13;17.10;86.00
67141;DHT22;54058;52.010;5.546;2023-05-09T05:59:39;17.20;85.90
67141;DHT22;54058;52.010;5.546;2023-05-09T06:02:05;17.30;85.80
67141;DHT22;54058;52.010;5.546;2023-05-09T06:04:30;17.30;85.70
67141;DHT22;54058;52.010;5.546;2023-05-09T06:06:56;17.30;85.60
67141;DHT22;54058;52.010;5.546;2023-05-09T06:09:21;17.40;85.70
67141;DHT22;54058;52.010;5.546;2023-05-09T06:11:47;17.40;85.70
67141;DHT22;54058;52.010;5.546;2023-05-09T06:14:13;17.50;85.60
67141;DHT22;54058;52.010;5.546;2023-05-09T06:16:38;17.60;85.70
67141;DHT22;54058;52.010;5.546;2023-05-09T06:19:04;17.60;85.60
67141;DHT22;54058;52.010;5.546;2023-05-09T06:21:29;17.60;85.60
67141;DHT22;54058;52.010;5.546;2023-05-09T06:23:55;17.70;85.50
67141;DHT22;54058;52.010;5.546;2023-05-09T06:26:21;17.80;85.30
67141;DHT22;54058;52.010;5.546;2023-05-09T06:28:46;17.90;85.20
67141;DHT22;54058;52.010;5.546;2023-05-09T06:31:12;17.90;85.60
67141;DHT22;54058;52.010;5.546;2023-05-09T06:33:37;18.00;85.00
67141;DHT22;54058;52.010;5.546;2023-05-09T06:36:04;17.90;85.00
67141;DHT22;54058;52.010;5.546;2023-05-09T06:38:30;17.90;84.80
67141;DHT22;54058;52.010;5.546;2023-05-09T06:40:55;17.90;84.90
67141;DHT22;54058;52.010;5.546;2023-05-09T06:43:21;17.90;84.90
67141;DHT22;54058;52.010;5.546;2023-05-09T06:45:46;17.90;84.70
67141;DHT22;54058;52.010;5.546;2023-05-09T06:48:12;17.80;84.80
67141;DHT22;54058;52.010;5.546;2023-05-09T06:50:37;17.90;84.90
67141;DHT22;54058;52.010;5.546;2023-05-09T06:53:03;17.80;84.80
67141;DHT22;54058;52.010;5.546;2023-05-09T06:55:29;17.80;84.70
67141;DHT22;54058;52.010;5.546;2023-05-09T06:57:54;17.80;84.50
67141;DHT22;54058;52.010;5.546;2023-05-09T07:00:20;17.80;84.70
67141;DHT22;54058;52.010;5.546;2023-05-09T07:02:46;17.80;84.70
67141;DHT22;54058;52.010;5.546;2023-05-09T07:05:12;17.80;84.40
67141;DHT22;54058;52.010;5.546;2023-05-09T07:07:37;17.80;84.50
67141;DHT22;54058;52.010;5.546;2023-05-09T07:10:03;17.80;84.70
67141;DHT22;54058;52.010;5.546;2023-05-09T07:12:32;17.80;84.70
67141;DHT22;54058;52.010;5.546;2023-05-09T07:14:58;17.80;84.50
67141;DHT22;54058;52.010;5.546;2023-05-09T07:17:24;17.80;84.30
67141;DHT22;54058;52.010;5.546;2023-05-09T07:19:50;17.80;84.40
67141;DHT22;54058;52.010;5.546;2023-05-09T07:22:16;17.80;84.30
67141;DHT22;54058;52.010;5.546;2023-05-09T07:24:41;17.90;84.30
67141;DHT22;54058;52.010;5.546;2023-05-09T07:27:08;17.90;84.30
67141;DHT22;54058;52.010;5.546;2023-05-09T07:29:34;17.90;84.20
67141;DHT22;54058;52.010;5.546;2023-05-09T07:32:00;18.00;84.20
67141;DHT22;54058;52.010;5.546;2023-05-09T07:34:26;18.00;84.10
67141;DHT22;54058;52.010;5.546;2023-05-09T07:36:51;18.00;84.00
67141;DHT22;54058;52.010;5.546;2023-05-09T07:39:17;18.00;84.10
67141;DHT22;54058;52.010;5.546;2023-05-09T07:41:42;18.00;84.10
67141;DHT22;54058;52.010;5.546;2023-05-09T07:44:08;18.00;84.10
67141;DHT22;54058;52.010;5.546;2023-05-09T07:46:37;18.00;84.20
67141;DHT22;54058;52.010;5.546;2023-05-09T07:49:05;18.00;84.30
67141;DHT22;54058;52.010;5.546;2023-05-09T07:51:30;18.00;84.20
67141;DHT22;54058;52.010;5.546;2023-05-09T07:53:56;18.00;84.30
67141;DHT22;54058;52.010;5.546;2023-05-09T07:56:22;18.00;84.40
67141;DHT22;54058;52.010;5.546;2023-05-09T07:58:48;18.00;84.80
67141;DHT22;54058;52.010;5.546;2023-05-09T08:01:14;17.90;84.40
67141;DHT22;54058;52.010;5.546;2023-05-09T08:03:39;17.80;84.50
67141;DHT22;54058;52.010;5.546;2023-05-09T08:06:06;17.70;84.60
67141;DHT22;54058;52.010;5.546;2023-05-09T08:08:31;17.70;84.70
67141;DHT22;54058;52.010;5.546;2023-05-09T08:10:57;17.60;84.80
67141;DHT22;54058;52.010;5.546;2023-05-09T08:13:23;17.60;84.90
67141;DHT22;54058;52.010;5.546;2023-05-09T08:15:49;17.60;85.10
67141;DHT22;54058;52.010;5.546;2023-05-09T08:18:15;17.60;85.20
67141;DHT22;54058;52.010;5.546;2023-05-09T08:20:40;17.60;85.20
67141;DHT22;54058;52.010;5.546;2023-05-09T08:23:06;17.60;85.10
67141;DHT22;54058;52.010;5.546;2023-05-09T08:25:32;17.60;85.20
67141;DHT22;54058;52.010;5.546;2023-05-09T08:27:57;17.60;85.10
67141;DHT22;54058;52.010;5.546;2023-05-09T08:30:23;17.60;85.10
67141;DHT22;54058;52.010;5.546;2023-05-09T08:32:49;17.60;85.10
67141;DHT22;54058;52.010;5.546;2023-05-09T08:35:15;17.60;85.20
67141;DHT22;54058;52.010;5.546;2023-05-09T08:37:40;17.60;85.20
67141;DHT22;54058;52.010;5.546;2023-05-09T08:40:07;17.60;85.40
67141;DHT22;54058;52.010;5.546;2023-05-09T08:42:35;17.60;85.30
67141;DHT22;54058;52.010;5.546;2023-05-09T08:45:07;17.50;85.30
67141;DHT22;54058;52.010;5.546;2023-05-09T08:47:38;17.50;85.40
67141;DHT22;54058;52.010;5.546;2023-05-09T08:50:05;17.50;86.20
67141;DHT22;54058;52.010;5.546;2023-05-09T08:52:32;17.50;85.60
67141;DHT22;54058;52.010;5.546;2023-05-09T08:54:59;17.60;85.60
67141;DHT22;54058;52.010;5.546;2023-05-09T08:57:25;17.70;85.60
67141;DHT22;54058;52.010;5.546;2023-05-09T08:59:52;17.70;85.90
67141;DHT22;54058;52.010;5.546;2023-05-09T09:02:18;17.70;85.50
67141;DHT22;54058;52.010;5.546;2023-05-09T09:04:44;17.80;85.60
67141;DHT22;54058;52.010;5.546;2023-05-09T09:07:10;17.80;85.50
67141;DHT22;54058;52.010;5.546;2023-05-09T09:09:43;17.90;85.50
67141;DHT22;54058;52.010;5.546;2023-05-09T09:12:14;17.90;85.40
67141;DHT22;54058;52.010;5.546;2023-05-09T09:14:53;18.00;85.40
67141;DHT22;54058;52.010;5.546;2023-05-09T09:17:25;18.00;85.40
67141;DHT22;54058;52.010;5.546;2023-05-09T09:19:56;18.00;85.40
67141;DHT22;54058;52.010;5.546;2023-05-09T09:22:23;18.00;85.40
67141;DHT22;54058;52.010;5.546;2023-05-09T09:24:50;18.10;85.40
67141;DHT22;54058;52.010;5.546;2023-05-09T09:27:16;18.10;85.50
67141;DHT22;54058;52.010;5.546;2023-05-09T09:29:41;18.10;85.40
67141;DHT22;54058;52.010;5.546;2023-05-09T09:32:07;18.20;85.50
67141;DHT22;54058;52.010;5.546;2023-05-09T09:34:33;18.20;85.60
67141;DHT22;54058;52.010;5.546;2023-05-09T09:36:58;18.20;85.60
67141;DHT22;54058;52.010;5.546;2023-05-09T09:39:24;18.30;85.80
67141;DHT22;54058;52.010;5.546;2023-05-09T09:41:50;18.30;85.80
67141;DHT22;54058;52.010;5.546;2023-05-09T09:44:17;18.40;85.70
67141;DHT22;54058;52.010;5.546;2023-05-09T09:46:54;18.50;85.60
67141;DHT22;54058;52.010;5.546;2023-05-09T09:51:55;18.40;84.60
67141;DHT22;54058;52.010;5.546;2023-05-09T09:54:22;18.40;85.50
67141;DHT22;54058;52.010;5.546;2023-05-09T09:56:50;18.30;85.70
67141;DHT22;54058;52.010;5.546;2023-05-09T09:59:23;18.30;85.80
67141;DHT22;54058;52.010;5.546;2023-05-09T10:02:00;18.30;85.80
67141;DHT22;54058;52.010;5.546;2023-05-09T10:04:31;18.40;85.90
67141;DHT22;54058;52.010;5.546;2023-05-09T10:06:58;18.40;85.80
67141;DHT22;54058;52.010;5.546;2023-05-09T10:09:25;18.40;85.60
67141;DHT22;54058;52.010;5.546;2023-05-09T10:11:53;18.40;85.60
67141;DHT22;54058;52.010;5.546;2023-05-09T10:14:21;18.40;85.60
67141;DHT22;54058;52.010;5.546;2023-05-09T10:16:48;18.30;85.50
67141;DHT22;54058;52.010;5.546;2023-05-09T10:19:17;18.40;85.60
67141;DHT22;54058;52.010;5.546;2023-05-09T10:21:48;18.40;85.70
67141;DHT22;54058;52.010;5.546;2023-05-09T10:24:15;18.30;85.60
67141;DHT22;54058;52.010;5.546;2023-05-09T10:26:45;18.10;85.40
67141;DHT22;54058;52.010;5.546;2023-05-09T10:29:15;18.10;85.80
67141;DHT22;54058;52.010;5.546;2023-05-09T10:31:49;18.00;85.80
67141;DHT22;54058;52.010;5.546;2023-05-09T10:34:17;18.00;85.80
67141;DHT22;54058;52.010;5.546;2023-05-09T10:36:44;18.00;85.90
67141;DHT22;54058;52.010;5.546;2023-05-09T10:39:10;18.00;85.80
67141;DHT22;54058;52.010;5.546;2023-05-09T10:41:37;17.90;85.80
67141;DHT22;54058;52.010;5.546;2023-05-09T10:44:04;17.90;85.80
67141;DHT22;54058;52.010;5.546;2023-05-09T10:46:29;17.90;86.00
67141;DHT22;54058;52.010;5.546;2023-05-09T10:48:55;17.80;85.90
67141;DHT22;54058;52.010;5.546;2023-05-09T10:51:23;17.70;85.90
67141;DHT22;54058;52.010;5.546;2023-05-09T10:53:50;17.70;85.80
67141;DHT22;54058;52.010;5.546;2023-05-09T10:56:25;17.60;86.40
67141;DHT22;54058;52.010;5.546;2023-05-09T10:58:53;17.70;85.90
67141;DHT22;54058;52.010;5.546;2023-05-09T11:01:36;17.70;86.00
67141;DHT22;54058;52.010;5.546;2023-05-09T11:04:15;17.60;85.90
67141;DHT22;54058;52.010;5.546;2023-05-09T11:06:47;17.60;85.90
67141;DHT22;54058;52.010;5.546;2023-05-09T11:09:37;17.60;85.80
67141;DHT22;54058;52.010;5.546;2023-05-09T11:12:13;17.70;85.90
67141;DHT22;54058;52.010;5.546;2023-05-09T11:14:49;17.60;85.80
67141;DHT22;54058;52.010;5.546;2023-05-09T11:22:19;17.50;85.90
67141;DHT22;54058;52.010;5.546;2023-05-09T11:24:50;17.40;85.90
67141;DHT22;54058;52.010;5.546;2023-05-09T11:27:20;17.40;86.00
67141;DHT22;54058;52.010;5.546;2023-05-09T11:29:51;17.40;86.10
67141;DHT22;54058;52.010;5.546;2023-05-09T11:32:18;17.50;86.20
67141;DHT22;54058;52.010;5.546;2023-05-09T11:34:45;17.50;86.10
67141;DHT22;54058;52.010;5.546;2023-05-09T11:37:16;17.40;86.10
67141;DHT22;54058;52.010;5.546;2023-05-09T11:42:26;17.40;86.50
67141;DHT22;54058;52.010;5.546;2023-05-09T11:44:52;17.30;86.50
67141;DHT22;54058;52.010;5.546;2023-05-09T11:47:19;17.30;86.50
67141;DHT22;54058;52.010;5.546;2023-05-09T11:49:47;17.40;86.60
67141;DHT22;54058;52.010;5.546;2023-05-09T11:52:13;17.40;86.70
67141;DHT22;54058;52.010;5.546;2023-05-09T11:54:39;17.40;86.70
67141;DHT22;54058;52.010;5.546;2023-05-09T11:57:05;17.30;86.50
67141;DHT22;54058;52.010;5.546;2023-05-09T11:59:35;17.20;86.70
67141;DHT22;54058;52.010;5.546;2023-05-09T12:02:05;17.20;86.80
67141;DHT22;54058;52.010;5.546;2023-05-09T12:04:31;17.20;86.90
67141;DHT22;54058;52.010;5.546;2023-05-09T12:07:00;17.20;86.80
67141;DHT22;54058;52.010;5.546;2023-05-09T12:09:31;17.20;86.80
67141;DHT22;54058;52.010;5.546;2023-05-09T12:11:57;17.20;86.90
67141;DHT22;54058;52.010;5.546;2023-05-09T12:14:32;17.20;87.00
67141;DHT22;54058;52.010;5.546;2023-05-09T12:16:58;17.30;87.10
67141;DHT22;54058;52.010;5.546;2023-05-09T12:19:25;17.30;87.00
67141;DHT22;54058;52.010;5.546;2023-05-09T12:22:02;17.20;87.10
67141;DHT22;54058;52.010;5.546;2023-05-09T12:24:29;17.20;87.40
67141;DHT22;54058;52.010;5.546;2023-05-09T12:26:55;17.20;87.30
67141;DHT22;54058;52.010;5.546;2023-05-09T12:29:23;17.30;87.30
67141;DHT22;54058;52.010;5.546;2023-05-09T12:31:49;17.30;87.30
67141;DHT22;54058;52.010;5.546;2023-05-09T12:34:16;17.30;87.30
67141;DHT22;54058;52.010;5.546;2023-05-09T12:36:46;17.40;87.30
67141;DHT22;54058;52.010;5.546;2023-05-09T12:39:18;17.40;87.50
67141;DHT22;54058;52.010;5.546;2023-05-09T12:41:48;17.50;87.40
67141;DHT22;54058;52.010;5.546;2023-05-09T12:44:26;17.40;87.60
67141;DHT22;54058;52.010;5.546;2023-05-09T12:46:58;17.40;87.80
67141;DHT22;54058;52.010;5.546;2023-05-09T12:49:24;17.40;87.80
67141;DHT22;54058;52.010;5.546;2023-05-09T12:51:50;17.40;87.70
67141;DHT22;54058;52.010;5.546;2023-05-09T12:54:27;17.40;87.90
67141;DHT22;54058;52.010;5.546;2023-05-09T12:56:54;17.40;88.10
67141;DHT22;54058;52.010;5.546;2023-05-09T12:59:25;17.50;88.00
67141;DHT22;54058;52.010;5.546;2023-05-09T13:01:53;17.50;87.90
67141;DHT22;54058;52.010;5.546;2023-05-09T13:04:19;17.60;87.90
67141;DHT22;54058;52.010;5.546;2023-05-09T13:06:46;17.60;87.90
67141;DHT22;54058;52.010;5.546;2023-05-09T13:09:12;17.50;89.50
67141;DHT22;54058;52.010;5.546;2023-05-09T13:11:39;17.50;88.60
67141;DHT22;54058;52.010;5.546;2023-05-09T13:14:04;17.50;88.00
67141;DHT22;54058;52.010;5.546;2023-05-09T13:16:30;17.50;88.00
67141;DHT22;54058;52.010;5.546;2023-05-09T13:18:56;17.40;88.10
67141;DHT22;54058;52.010;5.546;2023-05-09T13:21:21;17.40;88.30
67141;DHT22;54058;52.010;5.546;2023-05-09T13:23:47;17.40;88.40
67141;DHT22;54058;52.010;5.546;2023-05-09T13:26:14;17.40;88.40
67141;DHT22;54058;52.010;5.546;2023-05-09T13:28:40;17.40;88.30
67141;DHT22;54058;52.010;5.546;2023-05-09T13:31:05;17.40;88.30
67141;DHT22;54058;52.010;5.546;2023-05-09T13:33:32;17.40;88.40
67141;DHT22;54058;52.010;5.546;2023-05-09T13:35:57;17.40;88.50
67141;DHT22;54058;52.010;5.546;2023-05-09T13:38:23;17.50;88.50
67141;DHT22;54058;52.010;5.546;2023-05-09T13:40:50;17.50;88.60
67141;DHT22;54058;52.010;5.546;2023-05-09T13:43:16;17.50;88.70
67141;DHT22;54058;52.010;5.546;2023-05-09T13:45:41;17.60;88.60
67141;DHT22;54058;52.010;5.546;2023-05-09T13:48:07;17.70;88.60
67141;DHT22;54058;52.010;5.546;2023-05-09T13:50:33;17.70;88.60
67141;DHT22;54058;52.010;5.546;2023-05-09T13:52:58;17.80;88.50
67141;DHT22;54058;52.010;5.546;2023-05-09T13:55:24;17.80;88.60
67141;DHT22;54058;52.010;5.546;2023-05-09T13:57:51;17.80;88.70
67141;DHT22;54058;52.010;5.546;2023-05-09T14:00:17;17.70;88.60
67141;DHT22;54058;52.010;5.546;2023-05-09T14:02:42;17.70;88.70
67141;DHT22;54058;52.010;5.546;2023-05-09T14:05:08;17.60;88.60
67141;DHT22;54058;52.010;5.546;2023-05-09T14:07:34;17.60;88.80
67141;DHT22;54058;52.010;5.546;2023-05-09T14:09:59;17.60;88.80
67141;DHT22;54058;52.010;5.546;2023-05-09T14:12:26;17.60;88.90
67141;DHT22;54058;52.010;5.546;2023-05-09T14:14:53;17.50;88.90
67141;DHT22;54058;52.010;5.546;2023-05-09T14:17:18;17.50;89.10
67141;DHT22;54058;52.010;5.546;2023-05-09T14:19:44;17.60;89.10
67141;DHT22;54058;52.010;5.546;2023-05-09T14:22:10;17.60;89.10
67141;DHT22;54058;52.010;5.546;2023-05-09T14:24:35;17.60;89.00
67141;DHT22;54058;52.010;5.546;2023-05-09T14:27:01;17.60;89.00
67141;DHT22;54058;52.010;5.546;2023-05-09T14:29:27;17.60;89.00
67141;DHT22;54058;52.010;5.546;2023-05-09T14:31:52;17.60;88.90
67141;DHT22;54058;52.010;5.546;2023-05-09T14:34:18;17.60;88.90
67141;DHT22;54058;52.010;5.546;2023-05-09T14:36:44;17.60;89.00
67141;DHT22;54058;52.010;5.546;2023-05-09T14:39:10;17.50;88.90
67141;DHT22;54058;52.010;5.546;2023-05-09T14:41:36;17.50;89.20
67141;DHT22;54058;52.010;5.546;2023-05-09T14:44:01;17.50;89.30
67141;DHT22;54058;52.010;5.546;2023-05-09T14:46:27;17.50;89.30
67141;DHT22;54058;52.010;5.546;2023-05-09T14:48:53;17.50;89.30
67141;DHT22;54058;52.010;5.546;2023-05-09T14:51:21;17.50;89.20
67141;DHT22;54058;52.010;5.546;2023-05-09T14:53:47;17.40;89.20
67141;DHT22;54058;52.010;5.546;2023-05-09T14:56:13;17.40;89.30
67141;DHT22;54058;52.010;5.546;2023-05-09T14:58:39;17.40;89.20
67141;DHT22;54058;52.010;5.546;2023-05-09T15:01:04;17.40;89.10
67141;DHT22;54058;52.010;5.546;2023-05-09T15:03:30;17.40;89.10
67141;DHT22;54058;52.010;5.546;2023-05-09T15:05:55;17.40;89.20
67141;DHT22;54058;52.010;5.546;2023-05-09T15:08:23;17.40;89.20
67141;DHT22;54058;52.010;5.546;2023-05-09T15:10:48;17.40;89.10
67141;DHT22;54058;52.010;5.546;2023-05-09T15:13:15;17.50;89.20
67141;DHT22;54058;52.010;5.546;2023-05-09T15:15:41;17.50;89.30
67141;DHT22;54058;52.010;5.546;2023-05-09T15:18:07;17.40;89.10
67141;DHT22;54058;52.010;5.546;2023-05-09T15:20:37;17.40;89.20
67141;DHT22;54058;52.010;5.546;2023-05-09T15:23:03;17.30;89.20
67141;DHT22;54058;52.010;5.546;2023-05-09T15:25:31;17.20;89.30
67141;DHT22;54058;52.010;5.546;2023-05-09T15:27:56;17.20;89.50
67141;DHT22;54058;52.010;5.546;2023-05-09T15:30:23;17.10;89.60
67141;DHT22;54058;52.010;5.546;2023-05-09T15:32:49;17.10;89.70
67141;DHT22;54058;52.010;5.546;2023-05-09T15:35:14;17.20;90.10
67141;DHT22;54058;52.010;5.546;2023-05-09T15:37:43;17.10;89.70
67141;DHT22;54058;52.010;5.546;2023-05-09T15:40:08;17.10;89.60
67141;DHT22;54058;52.010;5.546;2023-05-09T15:42:36;17.10;89.50
67141;DHT22;54058;52.010;5.546;2023-05-09T15:45:02;17.10;89.60
67141;DHT22;54058;52.010;5.546;2023-05-09T15:47:28;17.10;89.60
67141;DHT22;54058;52.010;5.546;2023-05-09T15:49:54;17.00;89.40
67141;DHT22;54058;52.010;5.546;2023-05-09T15:52:20;17.00;90.00